createdAt,value
2023-02-15T00:01:21.212Z,60.39
2023-02-15T00:04:25.488Z,60.09
2023-02-15T00:07:26.946Z,60.32
2023-02-15T00:10:28.443Z,60.29
2023-02-15T00:13:29.932Z,60.29
2023-02-15T00:16:31.551Z,60.34
2023-02-15T00:19:33.065Z,60.16
2023-02-15T00:22:34.600Z,60.28
2023-02-15T00:25:36.126Z,60.40
2023-02-15T00:28:37.749Z,60.37
2023-02-15T00:31:39.406Z,60.23
2023-02-15T00:34:40.939Z,60.30
2023-02-15T00:37:42.420Z,60.17
2023-02-15T00:40:43.909Z,60.20
2023-02-15T00:43:45.408Z,60.18
2023-02-15T00:46:46.890Z,60.17
2023-02-15T00:49:48.418Z,60.12
2023-02-15T00:52:49.938Z,60.14
2023-02-15T00:55:51.503Z,60.13
2023-02-15T00:58:53.047Z,60.05
2023-02-15T01:01:54.574Z,60.03
2023-02-15T01:04:56.125Z,59.93
2023-02-15T01:07:58.222Z,59.92
2023-02-15T01:11:07.694Z,60.20
2023-02-15T01:14:09.235Z,59.98
2023-02-15T01:17:14.313Z,60.06
2023-02-15T01:20:16.157Z,60.14
2023-02-15T01:23:17.724Z,60.20
2023-02-15T01:26:21.992Z,60.36
2023-02-15T01:29:23.558Z,60.30
2023-02-15T01:32:25.094Z,60.38
2023-02-15T01:35:28.468Z,60.55
2023-02-15T01:38:29.931Z,60.54
2023-02-15T01:41:31.839Z,60.63
2023-02-15T01:44:49.566Z,60.69
2023-02-15T01:48:02.814Z,60.67
2023-02-15T01:51:04.706Z,60.73
2023-02-15T01:54:32.362Z,60.74
2023-02-15T01:57:34.316Z,60.87
2023-02-15T02:00:36.268Z,60.91
2023-02-15T02:03:56.686Z,60.95
2023-02-15T02:07:00.413Z,60.83
2023-02-15T02:10:03.436Z,61.12
2023-02-15T02:13:08.402Z,60.96
2023-02-15T02:16:27.559Z,61.13
2023-02-15T02:19:41.373Z,61.14
2023-02-15T02:22:57.969Z,61.21
2023-02-15T02:26:18.254Z,61.12
2023-02-15T02:29:58.769Z,61.27
2023-02-15T02:33:09.946Z,61.30
2023-02-15T02:36:12.298Z,61.22
2023-02-15T02:39:31.425Z,61.23
2023-02-15T02:42:48.654Z,61.29
2023-02-15T02:46:21.377Z,61.31
2023-02-15T02:49:35.252Z,61.36
2023-02-15T02:52:43.972Z,61.29
2023-02-15T02:56:06.968Z,61.39
2023-02-15T02:59:20.856Z,61.45
2023-02-15T03:02:27.445Z,61.61
2023-02-15T03:05:31.433Z,61.54
2023-02-15T03:08:38.961Z,61.45
2023-02-15T03:11:41.762Z,61.56
2023-02-15T03:14:46.637Z,61.51
2023-02-15T03:17:56.496Z,61.45
2023-02-15T03:21:02.406Z,61.56
2023-02-15T03:24:21.906Z,61.56
2023-02-15T03:27:27.619Z,61.63
2023-02-15T03:30:32.130Z,61.59
2023-02-15T03:33:41.357Z,61.59
2023-02-15T03:36:48.290Z,61.54
2023-02-15T03:40:28.589Z,61.79
2023-02-15T03:43:45.791Z,61.62
2023-02-15T03:46:57.217Z,61.77
2023-02-15T03:49:58.682Z,61.62
2023-02-15T03:53:03.145Z,61.71
2023-02-15T03:56:04.762Z,61.76
2023-02-15T03:59:24.977Z,61.80
2023-02-15T04:02:32.430Z,61.92
2023-02-15T04:05:33.968Z,61.99
2023-02-15T04:08:54.064Z,62.05
2023-02-15T04:11:58.358Z,62.50
2023-02-15T04:15:18.416Z,62.00
2023-02-15T04:18:19.907Z,62.03
2023-02-15T04:21:41.806Z,62.17
2023-02-15T04:25:01.903Z,62.15
2023-02-15T04:28:03.657Z,62.04
2023-02-15T04:31:05.117Z,61.99
2023-02-15T04:34:06.614Z,62.14
2023-02-15T04:37:08.118Z,62.10
2023-02-15T04:40:13.039Z,62.12
2023-02-15T04:43:14.515Z,61.91
2023-02-15T04:46:16.040Z,62.27
2023-02-15T04:49:17.551Z,61.72
2023-02-15T04:52:19.172Z,62.08
2023-02-15T04:55:20.851Z,62.08
2023-02-15T04:58:22.330Z,61.98
2023-02-15T05:01:23.830Z,62.36
2023-02-15T05:04:25.340Z,61.84
2023-02-15T05:07:26.814Z,61.78
2023-02-15T05:10:28.295Z,61.59
2023-02-15T05:13:29.850Z,61.47
2023-02-15T05:16:34.461Z,61.50
2023-02-15T05:19:35.972Z,61.50
2023-02-15T05:22:37.446Z,61.42
2023-02-15T05:25:57.425Z,61.23
2023-02-15T05:28:58.941Z,61.28
2023-02-15T05:32:00.575Z,61.11
2023-02-15T05:35:02.153Z,61.07
2023-02-15T05:38:03.641Z,61.12
2023-02-15T05:41:09.913Z,61.04
2023-02-15T05:44:11.427Z,60.99
2023-02-15T05:47:12.875Z,61.01
2023-02-15T05:50:14.344Z,61.03
2023-02-15T05:53:15.835Z,61.05
2023-02-15T05:56:17.354Z,61.08
2023-02-15T05:59:18.822Z,61.35
2023-02-15T06:02:20.310Z,61.33
2023-02-15T06:05:21.895Z,61.34
2023-02-15T06:08:23.440Z,61.42
2023-02-15T06:11:25.000Z,61.45
2023-02-15T06:14:26.600Z,61.70
2023-02-15T06:17:28.069Z,61.59
2023-02-15T06:20:29.597Z,61.65
2023-02-15T06:23:31.110Z,61.76
2023-02-15T06:26:32.638Z,61.59
2023-02-15T06:29:34.103Z,61.60
2023-02-15T06:32:35.666Z,61.63
2023-02-15T06:35:37.194Z,61.59
2023-02-15T06:38:38.835Z,61.53
2023-02-15T06:41:40.386Z,61.46
2023-02-15T06:44:41.910Z,61.37
2023-02-15T06:47:43.635Z,61.43
2023-02-15T06:50:45.116Z,61.25
2023-02-15T06:53:46.654Z,61.17
2023-02-15T06:56:48.162Z,61.26
2023-02-15T06:59:49.711Z,61.23
2023-02-15T07:02:58.817Z,61.12
2023-02-15T07:06:02.077Z,61.19
2023-02-15T07:09:03.874Z,61.04
2023-02-15T07:12:24.537Z,60.88
2023-02-15T07:15:26.064Z,61.05
2023-02-15T07:18:27.512Z,61.07
2023-02-15T07:21:29.052Z,60.91
2023-02-15T07:24:30.540Z,61.06
2023-02-15T07:27:32.891Z,61.07
2023-02-15T07:30:34.507Z,60.99
2023-02-15T07:33:36.266Z,60.94
2023-02-15T07:36:37.987Z,61.07
2023-02-15T07:39:39.460Z,61.00
2023-02-15T07:42:40.927Z,61.10
2023-02-15T07:45:42.491Z,61.17
2023-02-15T07:48:45.104Z,61.07
2023-02-15T07:51:47.076Z,61.14
2023-02-15T07:54:48.609Z,61.36
2023-02-15T07:57:51.487Z,61.32
2023-02-15T08:00:59.164Z,61.26
2023-02-15T08:04:00.791Z,61.39
2023-02-15T08:07:02.324Z,61.36
2023-02-15T08:10:03.949Z,61.31
2023-02-15T08:13:05.445Z,61.35
2023-02-15T08:16:07.087Z,61.14
2023-02-15T08:19:23.510Z,61.12
2023-02-15T08:22:25.490Z,61.23
2023-02-15T08:25:26.995Z,61.17
2023-02-15T08:28:28.463Z,61.35
2023-02-15T08:31:30.488Z,61.26
2023-02-15T08:34:35.212Z,61.24
2023-02-15T08:37:36.758Z,61.18
2023-02-15T08:40:38.987Z,61.06
2023-02-15T08:43:41.129Z,61.11
2023-02-15T08:46:44.929Z,61.11
2023-02-15T08:49:46.371Z,61.21
2023-02-15T08:52:47.889Z,60.83
2023-02-15T08:55:59.565Z,61.09
2023-02-15T08:59:03.651Z,61.08
2023-02-15T09:02:05.137Z,61.07
2023-02-15T09:05:07.137Z,61.10
2023-02-15T09:08:08.624Z,61.11
2023-02-15T09:11:13.084Z,61.12
2023-02-15T09:14:17.984Z,60.95
2023-02-15T09:17:19.465Z,61.22
2023-02-15T09:20:21.012Z,61.26
2023-02-15T09:23:27.298Z,61.73
2023-02-15T09:26:30.335Z,61.31
2023-02-15T09:29:31.807Z,61.62
2023-02-15T09:32:33.274Z,61.54
2023-02-15T09:35:34.789Z,61.72
2023-02-15T09:38:36.277Z,61.93
2023-02-15T09:41:52.787Z,62.01
2023-02-15T09:45:04.797Z,62.28
2023-02-15T09:48:23.494Z,62.45
2023-02-15T09:51:52.097Z,62.81
2023-02-15T09:54:59.563Z,63.04
2023-02-15T09:58:03.956Z,63.16
2023-02-15T10:01:22.857Z,63.35
2023-02-15T10:04:45.396Z,63.34
2023-02-15T10:07:52.842Z,63.59
2023-02-15T10:11:36.023Z,63.74
2023-02-15T10:14:59.132Z,63.97
2023-02-15T10:18:24.852Z,64.10
2023-02-15T10:21:47.624Z,64.40
2023-02-15T10:25:05.715Z,64.70
2023-02-15T10:28:19.281Z,65.03
2023-02-15T10:31:39.736Z,65.18
2023-02-15T10:34:51.215Z,65.41
2023-02-15T10:38:04.935Z,65.53
2023-02-15T10:41:15.372Z,65.69
2023-02-15T10:44:35.742Z,65.94
2023-02-15T10:48:08.278Z,66.24
2023-02-15T10:51:36.971Z,66.68
2023-02-15T10:55:04.669Z,66.85
2023-02-15T10:58:26.531Z,66.91
2023-02-15T11:01:36.875Z,67.04
2023-02-15T11:04:47.044Z,67.20
2023-02-15T11:07:52.353Z,67.18
2023-02-15T11:11:06.200Z,67.10
2023-02-15T11:14:37.415Z,67.25
2023-02-15T11:17:45.018Z,67.11
2023-02-15T11:20:52.755Z,67.11
2023-02-15T11:23:54.883Z,67.08
2023-02-15T11:26:59.314Z,66.85
2023-02-15T11:30:11.559Z,66.79
2023-02-15T11:33:23.371Z,66.61
2023-02-15T11:36:34.308Z,66.60
2023-02-15T11:39:38.220Z,66.38
2023-02-15T11:42:41.564Z,66.24
2023-02-15T11:45:45.758Z,66.15
2023-02-15T11:48:47.413Z,66.22
2023-02-15T11:51:51.510Z,66.40
2023-02-15T11:54:54.167Z,66.34
2023-02-15T11:58:01.772Z,66.33
2023-02-15T12:01:15.281Z,66.26
2023-02-15T12:04:40.430Z,66.20
2023-02-15T12:07:47.760Z,66.10
2023-02-15T12:11:04.455Z,66.18
2023-02-15T12:14:09.176Z,66.18
2023-02-15T12:17:14.242Z,66.42
2023-02-15T12:20:15.667Z,66.40
2023-02-15T12:23:18.864Z,66.51
2023-02-15T12:26:27.878Z,66.47
2023-02-15T12:29:35.445Z,66.53
2023-02-15T12:32:49.847Z,66.80
2023-02-15T12:36:00.497Z,66.97
2023-02-15T12:39:18.591Z,67.18
2023-02-15T12:42:20.593Z,67.57
2023-02-15T12:45:26.945Z,67.88
2023-02-15T12:48:28.474Z,67.88
2023-02-15T12:51:29.994Z,67.96
2023-02-15T12:54:33.578Z,68.31
2023-02-15T12:57:35.076Z,68.17
2023-02-15T13:00:36.845Z,68.13
2023-02-15T13:03:52.157Z,68.34
2023-02-15T13:06:58.768Z,68.54
2023-02-15T13:10:00.289Z,68.55
2023-02-15T13:13:03.874Z,68.63
2023-02-15T13:16:12.125Z,68.59
2023-02-15T13:19:40.878Z,68.71
2023-02-15T13:22:47.509Z,68.72
2023-02-15T13:25:51.254Z,68.71
2023-02-15T13:28:57.177Z,68.57
2023-02-15T13:32:16.260Z,68.67
2023-02-15T13:35:19.690Z,68.57
2023-02-15T13:38:39.737Z,68.52
2023-02-15T13:42:06.811Z,68.33
2023-02-15T13:45:39.536Z,68.21
2023-02-15T13:49:25.581Z,68.16
2023-02-15T13:52:29.428Z,68.06
2023-02-15T13:55:36.881Z,67.91
2023-02-15T13:58:50.618Z,67.85
2023-02-15T14:01:57.794Z,67.78
2023-02-15T14:05:18.001Z,67.73
2023-02-15T14:08:38.279Z,67.72
2023-02-15T14:12:24.523Z,67.63
2023-02-15T14:15:41.875Z,67.70
2023-02-15T14:18:49.631Z,67.58
2023-02-15T14:21:51.133Z,67.54
2023-02-15T14:24:59.282Z,67.48
2023-02-15T14:28:23.370Z,67.43
2023-02-15T14:31:38.459Z,67.46
2023-02-15T14:34:52.280Z,67.59
2023-02-15T14:38:05.293Z,67.58
2023-02-15T14:41:42.980Z,67.53
2023-02-15T14:44:54.600Z,67.48
2023-02-15T14:48:18.931Z,67.47
2023-02-15T14:51:46.508Z,67.42
2023-02-15T14:54:48.007Z,67.30
2023-02-15T14:57:59.758Z,67.34
2023-02-15T15:01:11.290Z,67.30
2023-02-15T15:04:23.423Z,67.05
2023-02-15T15:07:38.359Z,66.89
2023-02-15T15:10:45.570Z,66.37
2023-02-15T15:14:01.048Z,66.57
2023-02-15T15:17:04.841Z,66.50
2023-02-15T15:20:35.287Z,66.64
2023-02-15T15:23:43.533Z,66.61
2023-02-15T15:26:49.963Z,66.54
2023-02-15T15:29:52.180Z,66.71
2023-02-15T15:32:56.838Z,66.57
2023-02-15T15:36:26.468Z,66.61
2023-02-15T15:39:52.594Z,66.72
2023-02-15T15:43:03.254Z,66.79
2023-02-15T15:46:22.350Z,66.86
2023-02-15T15:49:29.019Z,66.91
2023-02-15T15:52:32.588Z,66.79
2023-02-15T15:55:35.310Z,66.75
2023-02-15T15:58:42.732Z,66.66
2023-02-15T16:01:47.969Z,66.32
2023-02-15T16:04:49.440Z,66.56
2023-02-15T16:07:51.007Z,66.70
2023-02-15T16:10:52.452Z,66.39
2023-02-15T16:13:54.526Z,66.39
2023-02-15T16:17:02.531Z,66.21
2023-02-15T16:20:12.308Z,66.16
2023-02-15T16:23:32.404Z,66.24
2023-02-15T16:26:52.261Z,66.11
2023-02-15T16:29:53.728Z,66.01
2023-02-15T16:33:05.106Z,66.17
2023-02-15T16:36:10.763Z,64.43
2023-02-15T16:39:20.400Z,61.73
2023-02-15T16:42:23.002Z,59.59
2023-02-15T16:45:27.154Z,58.85
2023-02-15T16:48:28.682Z,60.50
2023-02-15T16:51:33.592Z,61.42
2023-02-15T16:54:36.359Z,61.92
2023-02-15T16:57:39.376Z,62.15
2023-02-15T17:00:44.080Z,62.47
2023-02-15T17:03:49.826Z,62.63
2023-02-15T17:07:06.695Z,62.58
2023-02-15T17:10:29.862Z,62.97
2023-02-15T17:13:31.591Z,62.83
2023-02-15T17:16:42.572Z,62.88
2023-02-15T17:19:50.103Z,63.01
2023-02-15T17:22:53.082Z,63.03
2023-02-15T17:25:55.178Z,62.48
2023-02-15T17:29:03.583Z,56.72
2023-02-15T17:32:13.583Z,53.21
2023-02-15T17:35:25.659Z,51.22
2023-02-15T17:38:27.192Z,49.10
2023-02-15T17:41:31.551Z,47.22
2023-02-15T17:44:33.005Z,47.35
2023-02-15T17:47:34.593Z,49.28
2023-02-15T17:50:36.274Z,51.39
2023-02-15T17:53:38.420Z,52.40
2023-02-15T17:56:39.914Z,52.89
2023-02-15T18:00:00.514Z,53.38
2023-02-15T18:03:20.860Z,53.51
2023-02-15T18:06:41.357Z,54.12
2023-02-15T18:10:01.620Z,54.54
2023-02-15T18:13:03.376Z,54.58
2023-02-15T18:16:04.985Z,54.85
2023-02-15T18:19:14.018Z,55.24
2023-02-15T18:22:17.683Z,55.28
2023-02-15T18:25:21.496Z,55.55
2023-02-15T18:28:22.930Z,55.70
2023-02-15T18:31:24.797Z,55.84
2023-02-15T18:34:39.878Z,56.04
2023-02-15T18:37:41.356Z,56.45
2023-02-15T18:40:42.807Z,56.70
2023-02-15T18:43:44.644Z,56.85
2023-02-15T18:46:46.136Z,57.11
2023-02-15T18:49:47.812Z,57.32
2023-02-15T18:52:51.400Z,57.49
2023-02-15T18:55:53.322Z,57.85
2023-02-15T18:58:54.748Z,58.42
2023-02-15T19:01:57.779Z,58.64
2023-02-15T19:04:59.202Z,59.35
2023-02-15T19:08:02.125Z,59.51
2023-02-15T19:11:04.035Z,59.68
2023-02-15T19:14:06.151Z,59.94
2023-02-15T19:17:15.881Z,59.95
2023-02-15T19:20:19.925Z,60.11
2023-02-15T19:23:23.642Z,60.20
2023-02-15T19:26:36.290Z,60.44
2023-02-15T19:29:44.853Z,60.57
2023-02-15T19:32:46.518Z,60.61
2023-02-15T19:35:53.983Z,60.67
2023-02-15T19:38:55.879Z,60.88
2023-02-15T19:41:57.367Z,60.82
2023-02-15T19:44:58.808Z,61.16
2023-02-15T19:48:03.039Z,60.97
2023-02-15T19:51:04.707Z,60.95
2023-02-15T19:54:31.001Z,60.90
2023-02-15T19:57:32.506Z,60.88
2023-02-15T20:00:34.449Z,61.04
2023-02-15T20:03:36.262Z,60.99
2023-02-15T20:06:37.738Z,60.94
2023-02-15T20:09:40.818Z,61.02
2023-02-15T20:12:42.701Z,61.11
2023-02-15T20:15:49.883Z,60.87
2023-02-15T20:18:51.384Z,60.90
2023-02-15T20:21:54.803Z,61.10
2023-02-15T20:24:56.898Z,61.00
2023-02-15T20:27:59.449Z,61.12
2023-02-15T20:31:01.249Z,61.10
2023-02-15T20:34:02.788Z,60.92
2023-02-15T20:37:05.118Z,61.14
2023-02-15T20:40:18.586Z,61.17
2023-02-15T20:43:20.027Z,61.09
2023-02-15T20:46:21.465Z,60.90
2023-02-15T20:49:24.984Z,61.20
2023-02-15T20:52:26.606Z,61.37
2023-02-15T20:55:31.935Z,61.36
2023-02-15T20:58:34.378Z,61.33
2023-02-15T21:01:35.870Z,61.35
2023-02-15T21:04:37.459Z,61.46
2023-02-15T21:07:38.908Z,61.38
2023-02-15T21:10:45.127Z,61.45
2023-02-15T21:13:47.673Z,61.48
2023-02-15T21:16:50.322Z,61.42
2023-02-15T21:19:51.796Z,61.41
2023-02-15T21:22:54.317Z,61.38
2023-02-15T21:25:56.512Z,61.36
2023-02-15T21:28:57.999Z,61.34
2023-02-15T21:32:00.347Z,61.75
2023-02-15T21:35:01.937Z,61.55
2023-02-15T21:38:04.211Z,61.56
2023-02-15T21:41:25.689Z,61.33
2023-02-15T21:44:45.638Z,61.06
2023-02-15T21:47:52.829Z,61.45
2023-02-15T21:51:13.474Z,61.63
2023-02-15T21:54:17.055Z,61.39
2023-02-15T21:57:21.049Z,61.45
2023-02-15T22:00:25.010Z,61.31
2023-02-15T22:03:31.894Z,61.42
2023-02-15T22:06:33.352Z,61.25
2023-02-15T22:09:34.901Z,61.31
2023-02-15T22:12:37.453Z,61.16
2023-02-15T22:15:39.130Z,61.24
2023-02-15T22:18:40.666Z,61.07
2023-02-15T22:21:42.311Z,61.27
2023-02-15T22:24:44.787Z,61.40
2023-02-15T22:27:47.954Z,61.28
2023-02-15T22:30:49.441Z,61.16
2023-02-15T22:33:51.207Z,61.35
2023-02-15T22:36:53.594Z,61.11
2023-02-15T22:39:55.047Z,61.05
2023-02-15T22:42:59.714Z,61.12
2023-02-15T22:46:05.061Z,61.00
2023-02-15T22:49:06.547Z,61.08
2023-02-15T22:52:13.555Z,61.13
2023-02-15T22:55:20.686Z,61.05
2023-02-15T22:58:26.585Z,61.09
2023-02-15T23:01:33.727Z,60.93
2023-02-15T23:04:35.188Z,60.95
2023-02-15T23:07:37.163Z,61.12
2023-02-15T23:10:40.725Z,61.05
2023-02-15T23:13:42.544Z,61.00
2023-02-15T23:16:44.070Z,60.69
2023-02-15T23:19:45.691Z,60.87
2023-02-15T23:22:47.183Z,60.84
2023-02-15T23:25:48.630Z,60.94
2023-02-15T23:28:51.681Z,60.86
2023-02-15T23:31:53.985Z,60.88
2023-02-15T23:34:55.538Z,60.88
2023-02-15T23:37:56.984Z,60.91
2023-02-15T23:41:35.253Z,60.79
2023-02-15T23:44:37.441Z,60.78
2023-02-15T23:47:57.523Z,60.79
2023-02-15T23:50:59.718Z,60.89
2023-02-15T23:54:01.258Z,61.19
2023-02-15T23:57:03.268Z,60.86
